Aérodrome :
LOGIN :

S'inscrire | Disclaimer

   EN    FR    IT 

 










Légende :    VFR   VFR Marginal   IFR   IFR Intensif   IFR Très Intensif
Visi : 
Plafond : 
>= 8 km
>= 3000ft
5 à 8 km
1000 à 3000 ft
1500m à 5 km
500 à 1000 ft
800 à 1500m
200 à 500 ft
< 800m
< 200 ft
Symboles :   Orages  Brouillard  Fortes neiges  Fortes précipitations  Vent > 20 kt
SIGMETs :   Divers  Orages  Givrage  Turbulence  Onde Orograph.  Cendres Volcan.






- Altitude de l'aérodrome : 1058 ft
- Code IATA : SCN


EDDR - Saarbrücken

DERNIER METAR :
  • 051950Z 17003KT 110V180 0400 R27/0400N FZFG VV/// M04/M05 Q1021 NOSIG

METARs EXPIRÉS :
  • 051920Z 07002KT 0650 R27/0450N FZFG NSC M03/M03 Q1022 BECMG 0300 BKN001
  • 051850Z VRB02KT 1100 R27/1000D BR NSC M02/M02 Q1022 BECMG 0500 FZFG
  • 051820Z 26003KT 2800 BR NSC M02/M02 Q1022 BECMG 0500 FZFG
  • 051750Z 24005KT 4500 BR NSC M01/M01 Q1022 BECMG 0500 FZFG
  • 051720Z 23004KT 4500 BR NSC M02/M02 Q1022 BECMG 0500 FZFG

TAF TAF EDDR
Valide du 05 à 18h jusqu'au 06 à 18h UTC


051700Z 0518/0618 21006KT 5000 BR SCT004
TEMPO 0518/0520 1200 BCFG OVC002
BECMG 0520/0522 0400 FZFG VV001
BECMG 0606/0609 22011KT 1200 BR BKN004
BECMG 0609/0611 2500 BR BKN007
PROB30
TEMPO 0615/0618 23015G25KT 1200 RA BKN003



MET'MAP, la Météo Aéronautique d'un coup d'oeil ! - Copyright ORBIFLY Décembre 2007 - Disclaimer

ORBIFLY MET'MAP TEAM :

Programmation & Développement : Alexandra Zaïnal
Sur une idée originale de : Baudouin d'Aumeries
Assistance à la programmation : Marc-Olivier Méhu
Soutien technique & logistique : Manuel Goepfert

Contact : metmap@orbifly.com




SOURCES & CREDITS :

   NOAA